createdAt,value
2022-12-11T00:04:27.618Z,5.10
2022-12-11T00:09:32.483Z,5.17
2022-12-11T00:14:36.335Z,5.40
2022-12-11T00:19:40.116Z,6.03
2022-12-11T00:24:44.828Z,6.13
2022-12-11T00:29:48.122Z,7.63
2022-12-11T00:34:51.494Z,7.40
2022-12-11T00:39:56.387Z,6.63
2022-12-11T00:44:59.741Z,7.57
2022-12-11T00:50:03.185Z,7.97
2022-12-11T00:55:09.268Z,7.80
2022-12-11T01:00:14.314Z,7.57
2022-12-11T01:05:18.532Z,8.23
2022-12-11T01:10:26.064Z,7.70
2022-12-11T01:15:31.045Z,7.90
2022-12-11T01:20:34.855Z,7.30
2022-12-11T01:25:40.055Z,8.00
2022-12-11T01:30:44.741Z,8.63
2022-12-11T01:35:48.088Z,8.57
2022-12-11T01:40:53.217Z,8.00
2022-12-11T01:45:57.083Z,8.30
2022-12-11T01:51:02.742Z,9.13
2022-12-11T01:56:09.324Z,8.20
2022-12-11T02:01:15.975Z,8.13
2022-12-11T02:06:38.372Z,8.87
2022-12-11T02:11:52.594Z,9.73
2022-12-11T02:17:01.136Z,8.50
2022-12-11T02:22:10.274Z,9.47
2022-12-11T02:27:27.928Z,10.13
2022-12-11T02:32:39.597Z,10.03
2022-12-11T02:37:46.606Z,10.73
2022-12-11T02:42:51.822Z,10.83
2022-12-11T02:47:59.837Z,11.30
2022-12-11T02:53:06.072Z,11.10
2022-12-11T02:58:16.005Z,12.27
2022-12-11T03:03:20.912Z,12.13
2022-12-11T03:08:24.522Z,11.70
2022-12-11T03:13:28.339Z,11.73
2022-12-11T03:18:40.767Z,11.73
2022-12-11T03:23:51.436Z,12.03
2022-12-11T03:29:00.033Z,12.50
2022-12-11T03:34:12.153Z,13.37
2022-12-11T03:39:22.786Z,12.93
2022-12-11T03:44:27.883Z,11.80
2022-12-11T03:49:36.389Z,12.60
2022-12-11T03:54:41.435Z,11.83
2022-12-11T03:59:44.974Z,12.40
2022-12-11T04:04:49.694Z,12.53
2022-12-11T04:09:53.071Z,13.07
2022-12-11T04:15:03.490Z,11.97
2022-12-11T04:20:29.711Z,12.97
2022-12-11T04:25:33.050Z,11.77
2022-12-11T04:30:36.432Z,11.90
2022-12-11T04:35:41.240Z,12.97
2022-12-11T04:40:44.611Z,12.00
2022-12-11T04:45:47.983Z,11.77
2022-12-11T04:50:52.734Z,12.47
2022-12-11T04:55:56.681Z,11.40
2022-12-11T05:01:00.023Z,12.50
2022-12-11T05:06:05.372Z,11.90
2022-12-11T05:11:11.759Z,12.73
2022-12-11T05:16:17.877Z,12.00
2022-12-11T05:21:22.667Z,11.90
2022-12-11T05:26:26.116Z,12.50
2022-12-11T05:31:29.875Z,12.17
2022-12-11T05:36:35.457Z,11.40
2022-12-11T05:41:38.801Z,12.20
2022-12-11T05:46:42.288Z,12.97
2022-12-11T05:51:47.057Z,13.20
2022-12-11T05:56:51.814Z,11.63
2022-12-11T06:01:55.228Z,11.70
2022-12-11T06:07:00.091Z,11.27
2022-12-11T06:12:03.511Z,11.37
2022-12-11T06:17:06.922Z,11.37
2022-12-11T06:22:11.736Z,11.50
2022-12-11T06:27:15.050Z,10.03
2022-12-11T06:32:18.407Z,9.87
2022-12-11T06:37:23.200Z,10.10
2022-12-11T06:42:26.621Z,10.30
2022-12-11T06:47:30.552Z,10.33
2022-12-11T06:52:35.934Z,9.90
2022-12-11T06:57:39.299Z,11.40
2022-12-11T07:02:42.788Z,10.57
2022-12-11T07:07:48.141Z,9.97
2022-12-11T07:12:53.721Z,9.87
2022-12-11T07:17:57.115Z,9.50
2022-12-11T07:23:01.830Z,9.00
2022-12-11T07:28:05.354Z,9.10
2022-12-11T07:33:09.073Z,9.63
2022-12-11T07:38:13.846Z,7.90
2022-12-11T07:43:17.450Z,7.80
2022-12-11T07:48:20.859Z,8.60
2022-12-11T07:53:25.674Z,7.37
2022-12-11T07:58:29.611Z,7.50
2022-12-11T08:03:33.093Z,7.03
2022-12-11T08:08:38.086Z,6.97
2022-12-11T08:13:42.493Z,8.47
2022-12-11T08:18:47.462Z,7.17
2022-12-11T08:23:53.305Z,7.93
2022-12-11T08:28:57.383Z,6.97
2022-12-11T08:34:00.711Z,7.27
2022-12-11T08:39:05.720Z,6.60
2022-12-11T08:44:16.338Z,5.90
2022-12-11T08:49:21.095Z,6.30
2022-12-11T08:54:25.835Z,6.07
2022-12-11T08:59:29.238Z,5.40
2022-12-11T09:04:32.618Z,5.93
2022-12-11T09:09:37.444Z,4.57
2022-12-11T09:14:40.872Z,5.03
2022-12-11T09:19:44.451Z,4.20
2022-12-11T09:24:49.222Z,4.10
2022-12-11T09:29:52.681Z,4.27
2022-12-11T09:34:56.044Z,3.83
2022-12-11T09:40:05.764Z,3.50
2022-12-11T09:45:15.126Z,3.67
2022-12-11T09:50:24.082Z,3.50
2022-12-11T09:55:38.948Z,3.50
2022-12-11T10:00:48.568Z,3.40
2022-12-11T10:06:04.238Z,3.33
2022-12-11T10:11:38.989Z,2.60
2022-12-11T10:16:46.223Z,3.07
2022-12-11T10:21:52.546Z,2.97
2022-12-11T10:27:01.595Z,2.70
2022-12-11T10:32:08.191Z,3.00
2022-12-11T10:37:11.637Z,3.50
2022-12-11T10:42:20.608Z,2.80
2022-12-11T10:47:24.125Z,2.80
2022-12-11T10:52:31.697Z,2.90
2022-12-11T10:57:38.290Z,2.90
2022-12-11T11:02:46.876Z,2.70
2022-12-11T11:07:51.572Z,2.63
2022-12-11T11:13:30.011Z,2.50
2022-12-11T11:33:02.440Z,2.13
2022-12-11T11:38:18.419Z,2.20
2022-12-11T11:43:34.109Z,2.03
2022-12-11T11:48:45.921Z,2.50
2022-12-11T11:53:52.760Z,2.60
2022-12-11T11:59:04.322Z,2.33
2022-12-11T12:04:09.681Z,2.47
2022-12-11T12:09:25.407Z,2.20
2022-12-11T12:20:09.658Z,3.03
2022-12-11T12:25:20.212Z,2.93
2022-12-11T12:30:24.290Z,2.17
2022-12-11T12:35:37.670Z,2.40
2022-12-11T12:40:55.769Z,2.80
2022-12-11T12:46:08.549Z,2.83
2022-12-11T12:51:15.935Z,2.60
2022-12-11T12:56:20.539Z,2.40
2022-12-11T13:01:27.400Z,2.20
2022-12-11T13:06:36.126Z,3.00
2022-12-11T13:11:42.130Z,3.33
2022-12-11T13:16:46.812Z,2.87
2022-12-11T13:22:00.509Z,3.40
2022-12-11T13:27:23.598Z,2.35
2022-12-11T13:32:32.046Z,2.63
2022-12-11T13:37:41.334Z,2.80
2022-12-11T13:42:50.621Z,2.40
2022-12-11T13:47:54.176Z,2.27
2022-12-11T13:53:00.993Z,2.13
2022-12-11T13:58:04.647Z,3.17
2022-12-11T14:03:08.478Z,3.57
2022-12-11T14:08:13.990Z,4.20
2022-12-11T14:13:23.328Z,4.97
2022-12-11T14:18:30.998Z,4.50
2022-12-11T14:23:37.455Z,4.73
2022-12-11T14:28:44.083Z,4.97
2022-12-11T14:33:51.520Z,2.90
2022-12-11T14:39:01.149Z,2.93
2022-12-11T14:44:07.877Z,3.20
2022-12-11T14:49:21.706Z,5.93
2022-12-11T14:54:31.203Z,3.80
2022-12-11T14:59:45.207Z,4.53
2022-12-11T15:05:02.771Z,4.37
2022-12-11T15:10:09.355Z,4.67
2022-12-11T15:15:17.169Z,5.57
2022-12-11T15:20:27.025Z,4.97
2022-12-11T15:25:33.024Z,5.70
2022-12-11T15:30:36.784Z,9.90
2022-12-11T15:35:41.891Z,9.17
2022-12-11T15:40:46.871Z,6.57
2022-12-11T15:45:51.785Z,5.13
2022-12-11T15:50:55.248Z,6.00
2022-12-11T15:56:00.703Z,4.60
2022-12-11T16:01:04.351Z,4.80
2022-12-11T16:06:13.833Z,4.53
2022-12-11T16:11:18.825Z,4.53
2022-12-11T16:16:22.403Z,4.63
2022-12-11T16:21:27.073Z,4.20
2022-12-11T16:26:32.262Z,4.03
2022-12-11T16:31:35.909Z,4.93
2022-12-11T16:36:39.401Z,4.33
2022-12-11T16:41:44.342Z,4.20
2022-12-11T16:46:48.180Z,4.23
2022-12-11T16:51:51.673Z,3.70
2022-12-11T16:56:56.647Z,3.90
2022-12-11T17:02:00.167Z,4.00
2022-12-11T17:07:04.879Z,3.23
2022-12-11T17:12:10.390Z,2.87
2022-12-11T17:17:14.002Z,3.10
2022-12-11T17:22:17.513Z,2.33
2022-12-11T17:27:24.192Z,2.30
2022-12-11T17:32:29.234Z,1.90
2022-12-11T17:37:32.785Z,2.20
2022-12-11T17:42:38.083Z,2.17
2022-12-11T17:47:42.375Z,1.40
2022-12-11T17:52:46.006Z,2.30
2022-12-11T17:57:52.029Z,2.73
2022-12-11T18:02:55.596Z,3.30
2022-12-11T18:07:59.076Z,3.10
2022-12-11T18:13:04.109Z,3.90
2022-12-11T18:18:08.850Z,3.70
2022-12-11T18:23:12.600Z,5.87
2022-12-11T18:28:17.677Z,7.03
2022-12-11T18:33:21.273Z,8.17
2022-12-11T18:38:25.333Z,9.50
2022-12-11T18:43:30.295Z,9.67
2022-12-11T18:48:35.808Z,10.77
2022-12-11T18:53:40.494Z,10.53
2022-12-11T18:58:46.372Z,9.10
2022-12-11T19:03:51.491Z,7.93
2022-12-11T19:08:55.201Z,7.87
2022-12-11T19:14:00.543Z,7.20
2022-12-11T19:19:06.408Z,8.60
2022-12-11T19:24:15.079Z,8.93
2022-12-11T19:29:23.658Z,7.47
2022-12-11T19:34:27.541Z,6.97
2022-12-11T19:39:32.092Z,7.60
2022-12-11T19:44:37.115Z,5.23
2022-12-11T19:49:40.564Z,5.70
2022-12-11T19:54:44.104Z,5.93
2022-12-11T19:59:53.880Z,6.10
2022-12-11T20:05:00.319Z,6.87
2022-12-11T20:10:04.063Z,6.60
2022-12-11T20:15:10.442Z,4.50
2022-12-11T20:20:16.516Z,4.50
2022-12-11T20:25:21.709Z,3.70
2022-12-11T20:30:26.981Z,3.47
2022-12-11T20:35:30.602Z,3.60
2022-12-11T20:40:34.850Z,3.70
2022-12-11T20:45:39.676Z,2.87
2022-12-11T20:50:43.243Z,2.70
2022-12-11T20:55:46.729Z,2.73
2022-12-11T21:00:51.881Z,2.80
2022-12-11T21:05:56.075Z,2.27
2022-12-11T21:10:59.561Z,3.30
2022-12-11T21:16:07.996Z,3.37
2022-12-11T21:21:11.772Z,3.77
2022-12-11T21:26:15.895Z,3.40
2022-12-11T21:31:21.616Z,3.87
2022-12-11T21:36:25.855Z,3.33
2022-12-11T21:41:29.717Z,3.00
2022-12-11T21:46:35.040Z,3.53
2022-12-11T21:51:46.864Z,3.30
2022-12-11T21:56:51.177Z,3.10
2022-12-11T22:01:56.478Z,3.47
2022-12-11T22:06:59.968Z,3.50
2022-12-11T22:12:03.562Z,3.37
2022-12-11T22:17:08.526Z,3.97
2022-12-11T22:22:12.229Z,3.13
2022-12-11T22:27:20.419Z,2.20
2022-12-11T22:32:28.560Z,2.50
2022-12-11T22:37:32.270Z,2.80
2022-12-11T22:42:36.030Z,3.23
2022-12-11T22:47:41.008Z,2.97
2022-12-11T22:52:45.464Z,2.33
2022-12-11T22:57:48.998Z,2.97
2022-12-11T23:02:53.950Z,2.20
2022-12-11T23:07:57.677Z,1.70
2022-12-11T23:13:01.637Z,2.30
2022-12-11T23:18:06.707Z,2.30
2022-12-11T23:23:10.173Z,2.77
2022-12-11T23:28:14.168Z,2.77
2022-12-11T23:33:19.143Z,3.10
2022-12-11T23:38:22.785Z,2.70
2022-12-11T23:43:26.427Z,3.70
2022-12-11T23:48:31.379Z,3.80
2022-12-11T23:53:34.886Z,3.50
2022-12-11T23:58:39.260Z,3.30
